sensor_id;sensor_type;location;lat;lon;timestamp;P1;durP1;ratioP1;P2;durP2;ratioP2
35114;SDS011;21292;52.416;13.046;2022-12-11T00:00:37;35.08;;;18.23;;
35114;SDS011;21292;52.416;13.046;2022-12-11T00:03:05;32.97;;;18.40;;
35114;SDS011;21292;52.416;13.046;2022-12-11T00:05:42;42.33;;;16.85;;
35114;SDS011;21292;52.416;13.046;2022-12-11T00:08:11;38.10;;;17.00;;
35114;SDS011;21292;52.416;13.046;2022-12-11T00:10:45;39.40;;;18.65;;
35114;SDS011;21292;52.416;13.046;2022-12-11T00:13:14;36.55;;;18.38;;
35114;SDS011;21292;52.416;13.046;2022-12-11T00:15:42;35.83;;;17.98;;
35114;SDS011;21292;52.416;13.046;2022-12-11T00:18:10;33.58;;;18.20;;
35114;SDS011;21292;52.416;13.046;2022-12-11T00:20:39;40.92;;;18.98;;
35114;SDS011;21292;52.416;13.046;2022-12-11T00:23:08;38.10;;;17.55;;
35114;SDS011;21292;52.416;13.046;2022-12-11T00:25:39;40.13;;;18.25;;
35114;SDS011;21292;52.416;13.046;2022-12-11T00:28:08;34.13;;;17.45;;
35114;SDS011;21292;52.416;13.046;2022-12-11T00:30:37;37.50;;;18.63;;
35114;SDS011;21292;52.416;13.046;2022-12-11T00:33:05;40.45;;;19.20;;
35114;SDS011;21292;52.416;13.046;2022-12-11T00:35:36;34.78;;;18.08;;
35114;SDS011;21292;52.416;13.046;2022-12-11T00:38:05;34.20;;;18.47;;
35114;SDS011;21292;52.416;13.046;2022-12-11T00:40:34;39.60;;;18.58;;
35114;SDS011;21292;52.416;13.046;2022-12-11T00:43:03;39.90;;;18.23;;
35114;SDS011;21292;52.416;13.046;2022-12-11T00:45:34;36.88;;;19.38;;
35114;SDS011;21292;52.416;13.046;2022-12-11T00:48:02;30.67;;;16.48;;
35114;SDS011;21292;52.416;13.046;2022-12-11T00:50:31;39.97;;;18.63;;
35114;SDS011;21292;52.416;13.046;2022-12-11T00:52:59;37.67;;;17.95;;
35114;SDS011;21292;52.416;13.046;2022-12-11T00:55:27;34.72;;;19.13;;
35114;SDS011;21292;52.416;13.046;2022-12-11T00:57:57;36.50;;;18.27;;
35114;SDS011;21292;52.416;13.046;2022-12-11T01:00:25;35.88;;;19.27;;
35114;SDS011;21292;52.416;13.046;2022-12-11T01:02:53;36.70;;;20.52;;
35114;SDS011;21292;52.416;13.046;2022-12-11T01:05:21;42.65;;;20.25;;
35114;SDS011;21292;52.416;13.046;2022-12-11T01:07:49;38.10;;;18.60;;
35114;SDS011;21292;52.416;13.046;2022-12-11T01:10:17;40.05;;;20.02;;
35114;SDS011;21292;52.416;13.046;2022-12-11T01:12:52;41.40;;;19.02;;
35114;SDS011;21292;52.416;13.046;2022-12-11T01:15:23;44.67;;;19.73;;
35114;SDS011;21292;52.416;13.046;2022-12-11T01:17:52;38.85;;;18.77;;
35114;SDS011;21292;52.416;13.046;2022-12-11T01:20:21;38.53;;;18.58;;
35114;SDS011;21292;52.416;13.046;2022-12-11T01:22:50;41.38;;;19.98;;
35114;SDS011;21292;52.416;13.046;2022-12-11T01:25:19;34.92;;;18.10;;
35114;SDS011;21292;52.416;13.046;2022-12-11T01:27:48;37.63;;;18.67;;
35114;SDS011;21292;52.416;13.046;2022-12-11T01:30:18;35.92;;;18.60;;
35114;SDS011;21292;52.416;13.046;2022-12-11T01:32:48;36.25;;;19.55;;
35114;SDS011;21292;52.416;13.046;2022-12-11T01:35:16;32.40;;;18.27;;
35114;SDS011;21292;52.416;13.046;2022-12-11T01:37:46;35.17;;;19.05;;
35114;SDS011;21292;52.416;13.046;2022-12-11T01:40:15;38.42;;;18.52;;
35114;SDS011;21292;52.416;13.046;2022-12-11T01:42:45;34.47;;;18.95;;
35114;SDS011;21292;52.416;13.046;2022-12-11T01:45:30;37.20;;;18.92;;
35114;SDS011;21292;52.416;13.046;2022-12-11T01:48:03;36.10;;;17.55;;
35114;SDS011;21292;52.416;13.046;2022-12-11T01:50:34;34.22;;;18.20;;
35114;SDS011;21292;52.416;13.046;2022-12-11T01:53:06;39.10;;;17.83;;
35114;SDS011;21292;52.416;13.046;2022-12-11T01:55:35;34.05;;;17.70;;
35114;SDS011;21292;52.416;13.046;2022-12-11T01:58:05;35.47;;;19.20;;
35114;SDS011;21292;52.416;13.046;2022-12-11T02:00:34;36.05;;;17.48;;
35114;SDS011;21292;52.416;13.046;2022-12-11T02:03:04;32.95;;;17.90;;
35114;SDS011;21292;52.416;13.046;2022-12-11T02:05:32;37.75;;;18.63;;
35114;SDS011;21292;52.416;13.046;2022-12-11T02:08:00;31.52;;;17.80;;
35114;SDS011;21292;52.416;13.046;2022-12-11T02:10:32;34.20;;;17.02;;
35114;SDS011;21292;52.416;13.046;2022-12-11T02:13:10;31.40;;;16.85;;
35114;SDS011;21292;52.416;13.046;2022-12-11T02:15:41;34.90;;;17.67;;
35114;SDS011;21292;52.416;13.046;2022-12-11T02:18:18;33.22;;;17.85;;
35114;SDS011;21292;52.416;13.046;2022-12-11T02:20:51;34.30;;;16.45;;
35114;SDS011;21292;52.416;13.046;2022-12-11T02:23:29;31.75;;;16.58;;
35114;SDS011;21292;52.416;13.046;2022-12-11T02:26:24;35.22;;;16.50;;
35114;SDS011;21292;52.416;13.046;2022-12-11T02:29:01;35.92;;;17.15;;
35114;SDS011;21292;52.416;13.046;2022-12-11T02:31:33;27.40;;;15.77;;
35114;SDS011;21292;52.416;13.046;2022-12-11T02:36:36;29.15;;;15.65;;
35114;SDS011;21292;52.416;13.046;2022-12-11T02:39:06;32.22;;;16.35;;
35114;SDS011;21292;52.416;13.046;2022-12-11T02:41:36;32.35;;;15.70;;
35114;SDS011;21292;52.416;13.046;2022-12-11T02:44:07;34.20;;;16.45;;
35114;SDS011;21292;52.416;13.046;2022-12-11T02:46:37;27.92;;;15.77;;
35114;SDS011;21292;52.416;13.046;2022-12-11T02:49:06;31.27;;;16.92;;
35114;SDS011;21292;52.416;13.046;2022-12-11T02:51:37;28.17;;;15.77;;
35114;SDS011;21292;52.416;13.046;2022-12-11T02:54:08;31.95;;;15.90;;
35114;SDS011;21292;52.416;13.046;2022-12-11T02:56:39;35.95;;;16.65;;
35114;SDS011;21292;52.416;13.046;2022-12-11T02:59:12;29.23;;;16.00;;
35114;SDS011;21292;52.416;13.046;2022-12-11T03:01:41;29.75;;;15.07;;
35114;SDS011;21292;52.416;13.046;2022-12-11T03:04:10;31.40;;;17.38;;
35114;SDS011;21292;52.416;13.046;2022-12-11T03:06:38;28.38;;;16.08;;
35114;SDS011;21292;52.416;13.046;2022-12-11T03:09:09;28.20;;;15.48;;
35114;SDS011;21292;52.416;13.046;2022-12-11T03:11:38;28.77;;;16.17;;
35114;SDS011;21292;52.416;13.046;2022-12-11T03:14:06;34.55;;;17.42;;
35114;SDS011;21292;52.416;13.046;2022-12-11T03:16:36;27.85;;;16.05;;
35114;SDS011;21292;52.416;13.046;2022-12-11T03:19:09;29.88;;;15.80;;
35114;SDS011;21292;52.416;13.046;2022-12-11T03:21:41;27.98;;;14.82;;
35114;SDS011;21292;52.416;13.046;2022-12-11T03:24:13;36.35;;;15.57;;
35114;SDS011;21292;52.416;13.046;2022-12-11T03:26:42;28.52;;;15.35;;
35114;SDS011;21292;52.416;13.046;2022-12-11T03:29:14;32.05;;;16.20;;
35114;SDS011;21292;52.416;13.046;2022-12-11T03:31:48;36.15;;;16.90;;
35114;SDS011;21292;52.416;13.046;2022-12-11T03:34:21;32.58;;;15.77;;
35114;SDS011;21292;52.416;13.046;2022-12-11T03:36:51;28.13;;;16.25;;
35114;SDS011;21292;52.416;13.046;2022-12-11T03:39:21;27.17;;;14.88;;
35114;SDS011;21292;52.416;13.046;2022-12-11T03:41:51;33.40;;;16.25;;
35114;SDS011;21292;52.416;13.046;2022-12-11T03:44:20;31.15;;;16.75;;
35114;SDS011;21292;52.416;13.046;2022-12-11T03:46:50;36.45;;;15.50;;
35114;SDS011;21292;52.416;13.046;2022-12-11T03:49:21;29.20;;;15.93;;
35114;SDS011;21292;52.416;13.046;2022-12-11T03:51:51;30.50;;;16.20;;
35114;SDS011;21292;52.416;13.046;2022-12-11T03:54:20;32.25;;;15.65;;
35114;SDS011;21292;52.416;13.046;2022-12-11T03:56:50;31.48;;;15.07;;
35114;SDS011;21292;52.416;13.046;2022-12-11T03:59:20;33.20;;;16.07;;
35114;SDS011;21292;52.416;13.046;2022-12-11T04:01:50;32.70;;;15.95;;
35114;SDS011;21292;52.416;13.046;2022-12-11T04:04:18;28.80;;;15.73;;
35114;SDS011;21292;52.416;13.046;2022-12-11T04:06:46;30.67;;;15.32;;
35114;SDS011;21292;52.416;13.046;2022-12-11T04:09:14;31.60;;;15.50;;
35114;SDS011;21292;52.416;13.046;2022-12-11T04:11:42;30.15;;;16.50;;
35114;SDS011;21292;52.416;13.046;2022-12-11T04:14:11;27.88;;;14.77;;
35114;SDS011;21292;52.416;13.046;2022-12-11T04:16:59;31.30;;;15.10;;
35114;SDS011;21292;52.416;13.046;2022-12-11T04:19:27;31.80;;;16.45;;
35114;SDS011;21292;52.416;13.046;2022-12-11T04:22:14;34.40;;;15.95;;
35114;SDS011;21292;52.416;13.046;2022-12-11T04:25:00;37.47;;;16.92;;
35114;SDS011;21292;52.416;13.046;2022-12-11T04:27:29;31.23;;;16.08;;
35114;SDS011;21292;52.416;13.046;2022-12-11T04:30:15;31.00;;;16.45;;
35114;SDS011;21292;52.416;13.046;2022-12-11T04:32:47;31.02;;;15.82;;
35114;SDS011;21292;52.416;13.046;2022-12-11T04:35:16;30.42;;;16.70;;
35114;SDS011;21292;52.416;13.046;2022-12-11T04:37:44;33.97;;;15.85;;
35114;SDS011;21292;52.416;13.046;2022-12-11T04:40:14;32.33;;;16.42;;
35114;SDS011;21292;52.416;13.046;2022-12-11T04:42:43;35.15;;;16.85;;
35114;SDS011;21292;52.416;13.046;2022-12-11T04:45:11;36.20;;;16.65;;
35114;SDS011;21292;52.416;13.046;2022-12-11T04:47:40;34.63;;;17.02;;
35114;SDS011;21292;52.416;13.046;2022-12-11T04:50:12;31.92;;;15.80;;
35114;SDS011;21292;52.416;13.046;2022-12-11T04:52:41;33.28;;;15.98;;
35114;SDS011;21292;52.416;13.046;2022-12-11T04:55:10;34.95;;;16.77;;
35114;SDS011;21292;52.416;13.046;2022-12-11T04:57:39;30.95;;;17.05;;
35114;SDS011;21292;52.416;13.046;2022-12-11T05:00:08;39.78;;;17.60;;
35114;SDS011;21292;52.416;13.046;2022-12-11T05:02:38;31.13;;;16.50;;
35114;SDS011;21292;52.416;13.046;2022-12-11T05:05:08;35.50;;;17.10;;
35114;SDS011;21292;52.416;13.046;2022-12-11T05:07:38;30.52;;;15.10;;
35114;SDS011;21292;52.416;13.046;2022-12-11T05:10:07;38.53;;;16.13;;
35114;SDS011;21292;52.416;13.046;2022-12-11T05:12:35;35.05;;;16.90;;
35114;SDS011;21292;52.416;13.046;2022-12-11T05:15:04;34.25;;;16.33;;
35114;SDS011;21292;52.416;13.046;2022-12-11T05:17:32;34.35;;;16.38;;
35114;SDS011;21292;52.416;13.046;2022-12-11T05:20:01;34.33;;;17.40;;
35114;SDS011;21292;52.416;13.046;2022-12-11T05:22:30;33.65;;;16.73;;
35114;SDS011;21292;52.416;13.046;2022-12-11T05:24:58;31.67;;;15.98;;
35114;SDS011;21292;52.416;13.046;2022-12-11T05:27:26;32.63;;;15.70;;
35114;SDS011;21292;52.416;13.046;2022-12-11T05:29:54;33.75;;;16.25;;
35114;SDS011;21292;52.416;13.046;2022-12-11T05:32:25;36.42;;;17.38;;
35114;SDS011;21292;52.416;13.046;2022-12-11T05:34:53;35.10;;;17.60;;
35114;SDS011;21292;52.416;13.046;2022-12-11T05:37:21;34.45;;;16.48;;
35114;SDS011;21292;52.416;13.046;2022-12-11T05:39:50;32.45;;;15.68;;
35114;SDS011;21292;52.416;13.046;2022-12-11T05:42:18;35.55;;;16.92;;
35114;SDS011;21292;52.416;13.046;2022-12-11T05:44:54;33.85;;;17.23;;
35114;SDS011;21292;52.416;13.046;2022-12-11T05:47:22;38.30;;;18.02;;
35114;SDS011;21292;52.416;13.046;2022-12-11T05:49:51;39.25;;;17.73;;
35114;SDS011;21292;52.416;13.046;2022-12-11T05:52:19;35.47;;;16.75;;
35114;SDS011;21292;52.416;13.046;2022-12-11T05:54:47;32.92;;;17.55;;
35114;SDS011;21292;52.416;13.046;2022-12-11T05:57:17;39.08;;;17.08;;
35114;SDS011;21292;52.416;13.046;2022-12-11T05:59:45;38.03;;;16.48;;
35114;SDS011;21292;52.416;13.046;2022-12-11T06:02:13;38.92;;;18.48;;
35114;SDS011;21292;52.416;13.046;2022-12-11T06:04:41;37.00;;;17.48;;
35114;SDS011;21292;52.416;13.046;2022-12-11T06:07:10;36.40;;;17.20;;
35114;SDS011;21292;52.416;13.046;2022-12-11T06:09:38;36.08;;;17.85;;
35114;SDS011;21292;52.416;13.046;2022-12-11T06:12:06;38.85;;;18.02;;
35114;SDS011;21292;52.416;13.046;2022-12-11T06:14:35;32.85;;;15.35;;
35114;SDS011;21292;52.416;13.046;2022-12-11T06:17:03;37.65;;;17.20;;
35114;SDS011;21292;52.416;13.046;2022-12-11T06:19:31;43.45;;;18.30;;
35114;SDS011;21292;52.416;13.046;2022-12-11T06:22:02;36.73;;;16.73;;
35114;SDS011;21292;52.416;13.046;2022-12-11T06:24:30;37.50;;;17.35;;
35114;SDS011;21292;52.416;13.046;2022-12-11T06:26:59;37.97;;;17.40;;
35114;SDS011;21292;52.416;13.046;2022-12-11T06:29:27;35.88;;;16.60;;
35114;SDS011;21292;52.416;13.046;2022-12-11T06:31:56;42.40;;;18.23;;
35114;SDS011;21292;52.416;13.046;2022-12-11T06:34:24;38.13;;;17.70;;
35114;SDS011;21292;52.416;13.046;2022-12-11T06:36:52;36.55;;;16.50;;
35114;SDS011;21292;52.416;13.046;2022-12-11T06:39:20;37.80;;;16.85;;
35114;SDS011;21292;52.416;13.046;2022-12-11T06:41:48;43.50;;;18.33;;
35114;SDS011;21292;52.416;13.046;2022-12-11T06:44:16;35.20;;;17.35;;
35114;SDS011;21292;52.416;13.046;2022-12-11T06:46:44;33.63;;;16.67;;
35114;SDS011;21292;52.416;13.046;2022-12-11T06:49:13;35.63;;;16.98;;
35114;SDS011;21292;52.416;13.046;2022-12-11T06:51:42;38.15;;;16.05;;
35114;SDS011;21292;52.416;13.046;2022-12-11T06:54:11;37.00;;;16.90;;
35114;SDS011;21292;52.416;13.046;2022-12-11T06:56:39;37.45;;;17.40;;
35114;SDS011;21292;52.416;13.046;2022-12-11T06:59:09;44.22;;;19.90;;
35114;SDS011;21292;52.416;13.046;2022-12-11T07:01:38;39.25;;;17.92;;
35114;SDS011;21292;52.416;13.046;2022-12-11T07:04:07;37.80;;;17.73;;
35114;SDS011;21292;52.416;13.046;2022-12-11T07:06:37;39.42;;;18.05;;
35114;SDS011;21292;52.416;13.046;2022-12-11T07:09:05;35.25;;;17.52;;
35114;SDS011;21292;52.416;13.046;2022-12-11T07:11:35;39.75;;;18.15;;
35114;SDS011;21292;52.416;13.046;2022-12-11T07:14:03;41.25;;;17.83;;
35114;SDS011;21292;52.416;13.046;2022-12-11T07:16:31;43.40;;;18.50;;
35114;SDS011;21292;52.416;13.046;2022-12-11T07:19:00;42.33;;;20.05;;
35114;SDS011;21292;52.416;13.046;2022-12-11T07:21:30;37.55;;;16.70;;
35114;SDS011;21292;52.416;13.046;2022-12-11T07:23:59;39.38;;;17.63;;
35114;SDS011;21292;52.416;13.046;2022-12-11T07:26:27;39.85;;;17.65;;
35114;SDS011;21292;52.416;13.046;2022-12-11T07:28:56;39.08;;;18.17;;
35114;SDS011;21292;52.416;13.046;2022-12-11T07:31:25;37.97;;;18.42;;
35114;SDS011;21292;52.416;13.046;2022-12-11T07:33:55;43.72;;;18.88;;
35114;SDS011;21292;52.416;13.046;2022-12-11T07:36:24;47.42;;;21.23;;
35114;SDS011;21292;52.416;13.046;2022-12-11T07:38:52;42.92;;;17.52;;
35114;SDS011;21292;52.416;13.046;2022-12-11T07:41:22;41.88;;;18.88;;
35114;SDS011;21292;52.416;13.046;2022-12-11T07:43:50;47.55;;;19.17;;
35114;SDS011;21292;52.416;13.046;2022-12-11T07:46:19;40.45;;;19.77;;
35114;SDS011;21292;52.416;13.046;2022-12-11T07:48:50;40.88;;;18.98;;
35114;SDS011;21292;52.416;13.046;2022-12-11T07:51:19;37.70;;;18.17;;
35114;SDS011;21292;52.416;13.046;2022-12-11T07:53:52;39.33;;;18.58;;
35114;SDS011;21292;52.416;13.046;2022-12-11T07:56:23;42.25;;;21.00;;
35114;SDS011;21292;52.416;13.046;2022-12-11T07:58:51;41.45;;;18.67;;
35114;SDS011;21292;52.416;13.046;2022-12-11T08:01:20;41.88;;;17.85;;
35114;SDS011;21292;52.416;13.046;2022-12-11T08:03:49;38.47;;;18.88;;
35114;SDS011;21292;52.416;13.046;2022-12-11T08:06:17;40.35;;;17.23;;
35114;SDS011;21292;52.416;13.046;2022-12-11T08:08:47;42.75;;;18.88;;
35114;SDS011;21292;52.416;13.046;2022-12-11T08:11:15;41.22;;;17.45;;
35114;SDS011;21292;52.416;13.046;2022-12-11T08:13:44;40.45;;;18.17;;
35114;SDS011;21292;52.416;13.046;2022-12-11T08:16:12;36.28;;;17.38;;
35114;SDS011;21292;52.416;13.046;2022-12-11T08:18:42;39.33;;;17.98;;
35114;SDS011;21292;52.416;13.046;2022-12-11T08:21:11;41.13;;;18.10;;
35114;SDS011;21292;52.416;13.046;2022-12-11T08:23:40;37.63;;;16.40;;
35114;SDS011;21292;52.416;13.046;2022-12-11T08:26:09;37.17;;;15.40;;
35114;SDS011;21292;52.416;13.046;2022-12-11T08:28:38;38.83;;;16.48;;
35114;SDS011;21292;52.416;13.046;2022-12-11T08:31:08;28.73;;;14.00;;
35114;SDS011;21292;52.416;13.046;2022-12-11T08:33:38;33.45;;;15.63;;
35114;SDS011;21292;52.416;13.046;2022-12-11T08:36:08;31.02;;;14.90;;
35114;SDS011;21292;52.416;13.046;2022-12-11T08:38:37;27.63;;;14.43;;
35114;SDS011;21292;52.416;13.046;2022-12-11T08:41:09;35.40;;;14.07;;
35114;SDS011;21292;52.416;13.046;2022-12-11T08:46:05;29.20;;;13.05;;
35114;SDS011;21292;52.416;13.046;2022-12-11T08:48:36;32.55;;;13.70;;
35114;SDS011;21292;52.416;13.046;2022-12-11T08:51:06;31.58;;;14.57;;
35114;SDS011;21292;52.416;13.046;2022-12-11T08:53:35;33.28;;;14.07;;
35114;SDS011;21292;52.416;13.046;2022-12-11T08:56:03;28.63;;;13.63;;
35114;SDS011;21292;52.416;13.046;2022-12-11T08:58:32;25.10;;;12.82;;
35114;SDS011;21292;52.416;13.046;2022-12-11T09:01:04;33.70;;;12.55;;
35114;SDS011;21292;52.416;13.046;2022-12-11T09:03:34;29.08;;;13.85;;
35114;SDS011;21292;52.416;13.046;2022-12-11T09:06:03;25.13;;;11.65;;
35114;SDS011;21292;52.416;13.046;2022-12-11T09:08:32;25.42;;;12.13;;
35114;SDS011;21292;52.416;13.046;2022-12-11T09:11:04;26.95;;;12.60;;
35114;SDS011;21292;52.416;13.046;2022-12-11T09:16:02;33.30;;;14.43;;
35114;SDS011;21292;52.416;13.046;2022-12-11T09:18:30;29.30;;;14.02;;
35114;SDS011;21292;52.416;13.046;2022-12-11T09:21:00;25.58;;;12.85;;
35114;SDS011;21292;52.416;13.046;2022-12-11T09:23:29;24.88;;;13.38;;
35114;SDS011;21292;52.416;13.046;2022-12-11T09:25:57;29.55;;;13.70;;
35114;SDS011;21292;52.416;13.046;2022-12-11T09:28:25;26.02;;;13.35;;
35114;SDS011;21292;52.416;13.046;2022-12-11T09:30:54;26.77;;;11.95;;
35114;SDS011;21292;52.416;13.046;2022-12-11T09:33:23;29.15;;;13.95;;
35114;SDS011;21292;52.416;13.046;2022-12-11T09:35:55;25.17;;;12.43;;
35114;SDS011;21292;52.416;13.046;2022-12-11T09:38:25;25.63;;;13.10;;
35114;SDS011;21292;52.416;13.046;2022-12-11T09:40:53;24.88;;;12.73;;
35114;SDS011;21292;52.416;13.046;2022-12-11T09:43:29;27.23;;;13.02;;
35114;SDS011;21292;52.416;13.046;2022-12-11T09:46:04;25.08;;;11.23;;
35114;SDS011;21292;52.416;13.046;2022-12-11T09:48:36;24.35;;;11.80;;
35114;SDS011;21292;52.416;13.046;2022-12-11T09:51:09;29.27;;;12.27;;
35114;SDS011;21292;52.416;13.046;2022-12-11T09:53:42;26.27;;;11.38;;
35114;SDS011;21292;52.416;13.046;2022-12-11T09:56:12;27.80;;;12.38;;
35114;SDS011;21292;52.416;13.046;2022-12-11T09:58:48;26.40;;;11.88;;
35114;SDS011;21292;52.416;13.046;2022-12-11T10:01:25;27.77;;;12.52;;
35114;SDS011;21292;52.416;13.046;2022-12-11T10:06:54;29.02;;;13.18;;
35114;SDS011;21292;52.416;13.046;2022-12-11T10:09:29;24.88;;;12.73;;
35114;SDS011;21292;52.416;13.046;2022-12-11T10:12:07;26.23;;;12.68;;
35114;SDS011;21292;52.416;13.046;2022-12-11T10:14:44;25.95;;;12.68;;
35114;SDS011;21292;52.416;13.046;2022-12-11T10:17:20;28.67;;;13.32;;
35114;SDS011;21292;52.416;13.046;2022-12-11T10:19:50;25.88;;;13.38;;
35114;SDS011;21292;52.416;13.046;2022-12-11T10:22:19;30.45;;;14.02;;
35114;SDS011;21292;52.416;13.046;2022-12-11T10:24:52;29.85;;;12.77;;
35114;SDS011;21292;52.416;13.046;2022-12-11T10:27:37;27.25;;;13.52;;
35114;SDS011;21292;52.416;13.046;2022-12-11T10:30:11;28.20;;;13.57;;
35114;SDS011;21292;52.416;13.046;2022-12-11T10:32:42;28.88;;;13.23;;
35114;SDS011;21292;52.416;13.046;2022-12-11T10:35:18;28.10;;;13.30;;
35114;SDS011;21292;52.416;13.046;2022-12-11T10:37:50;29.25;;;13.50;;
35114;SDS011;21292;52.416;13.046;2022-12-11T10:40:20;31.25;;;14.23;;
35114;SDS011;21292;52.416;13.046;2022-12-11T10:42:51;31.13;;;13.95;;
35114;SDS011;21292;52.416;13.046;2022-12-11T10:45:20;30.00;;;14.60;;
35114;SDS011;21292;52.416;13.046;2022-12-11T10:47:47;31.13;;;13.02;;
35114;SDS011;21292;52.416;13.046;2022-12-11T10:50:22;30.42;;;13.88;;
35114;SDS011;21292;52.416;13.046;2022-12-11T10:52:51;29.33;;;13.88;;
35114;SDS011;21292;52.416;13.046;2022-12-11T10:55:21;34.50;;;14.75;;
35114;SDS011;21292;52.416;13.046;2022-12-11T10:57:53;32.88;;;16.58;;
35114;SDS011;21292;52.416;13.046;2022-12-11T11:00:28;33.00;;;13.65;;
35114;SDS011;21292;52.416;13.046;2022-12-11T11:03:02;28.40;;;14.23;;
35114;SDS011;21292;52.416;13.046;2022-12-11T11:05:32;32.88;;;15.93;;
35114;SDS011;21292;52.416;13.046;2022-12-11T11:08:03;36.00;;;14.45;;
35114;SDS011;21292;52.416;13.046;2022-12-11T11:10:49;30.67;;;14.52;;
35114;SDS011;21292;52.416;13.046;2022-12-11T11:13:20;33.80;;;15.63;;
35114;SDS011;21292;52.416;13.046;2022-12-11T11:15:49;28.50;;;14.38;;
35114;SDS011;21292;52.416;13.046;2022-12-11T11:18:29;32.72;;;15.88;;
35114;SDS011;21292;52.416;13.046;2022-12-11T11:20:58;28.77;;;13.60;;
35114;SDS011;21292;52.416;13.046;2022-12-11T11:23:27;31.88;;;14.48;;
35114;SDS011;21292;52.416;13.046;2022-12-11T11:25:58;29.10;;;13.18;;
35114;SDS011;21292;52.416;13.046;2022-12-11T11:28:29;30.83;;;13.18;;
35114;SDS011;21292;52.416;13.046;2022-12-11T11:31:02;29.10;;;14.13;;
35114;SDS011;21292;52.416;13.046;2022-12-11T11:33:32;34.45;;;14.57;;
35114;SDS011;21292;52.416;13.046;2022-12-11T11:36:05;33.78;;;15.50;;
35114;SDS011;21292;52.416;13.046;2022-12-11T11:38:45;31.10;;;14.23;;
35114;SDS011;21292;52.416;13.046;2022-12-11T11:41:20;27.25;;;13.43;;
35114;SDS011;21292;52.416;13.046;2022-12-11T11:43:56;23.45;;;12.75;;
35114;SDS011;21292;52.416;13.046;2022-12-11T11:46:26;28.45;;;14.18;;
35114;SDS011;21292;52.416;13.046;2022-12-11T11:48:57;34.40;;;14.25;;
35114;SDS011;21292;52.416;13.046;2022-12-11T11:51:33;32.90;;;15.90;;
35114;SDS011;21292;52.416;13.046;2022-12-11T11:56:57;37.45;;;16.08;;
35114;SDS011;21292;52.416;13.046;2022-12-11T11:59:29;37.92;;;15.30;;
35114;SDS011;21292;52.416;13.046;2022-12-11T12:01:58;32.33;;;15.48;;
35114;SDS011;21292;52.416;13.046;2022-12-11T12:04:26;33.13;;;13.57;;
35114;SDS011;21292;52.416;13.046;2022-12-11T12:07:05;34.95;;;15.15;;
35114;SDS011;21292;52.416;13.046;2022-12-11T12:09:42;34.35;;;15.52;;
35114;SDS011;21292;52.416;13.046;2022-12-11T12:12:18;38.15;;;16.30;;
35114;SDS011;21292;52.416;13.046;2022-12-11T12:14:59;35.23;;;15.67;;
35114;SDS011;21292;52.416;13.046;2022-12-11T12:17:34;31.83;;;14.75;;
35114;SDS011;21292;52.416;13.046;2022-12-11T12:20:10;31.48;;;14.60;;
35114;SDS011;21292;52.416;13.046;2022-12-11T12:22:48;35.70;;;15.18;;
35114;SDS011;21292;52.416;13.046;2022-12-11T12:25:21;31.40;;;14.70;;
35114;SDS011;21292;52.416;13.046;2022-12-11T12:27:58;34.53;;;16.15;;
35114;SDS011;21292;52.416;13.046;2022-12-11T12:30:30;37.20;;;15.75;;
35114;SDS011;21292;52.416;13.046;2022-12-11T12:33:09;39.00;;;15.32;;
35114;SDS011;21292;52.416;13.046;2022-12-11T12:35:43;31.08;;;14.65;;
35114;SDS011;21292;52.416;13.046;2022-12-11T12:38:18;33.63;;;15.63;;
35114;SDS011;21292;52.416;13.046;2022-12-11T12:40:52;33.28;;;16.15;;
35114;SDS011;21292;52.416;13.046;2022-12-11T12:43:33;34.53;;;14.80;;
35114;SDS011;21292;52.416;13.046;2022-12-11T12:46:10;35.75;;;14.75;;
35114;SDS011;21292;52.416;13.046;2022-12-11T12:48:47;30.95;;;14.80;;
35114;SDS011;21292;52.416;13.046;2022-12-11T12:51:16;35.90;;;15.82;;
35114;SDS011;21292;52.416;13.046;2022-12-11T12:53:47;36.65;;;14.93;;
35114;SDS011;21292;52.416;13.046;2022-12-11T12:56:19;30.60;;;14.25;;
35114;SDS011;21292;52.416;13.046;2022-12-11T12:58:49;37.65;;;16.02;;
35114;SDS011;21292;52.416;13.046;2022-12-11T13:01:18;34.95;;;14.85;;
35114;SDS011;21292;52.416;13.046;2022-12-11T13:03:49;36.05;;;14.95;;
35114;SDS011;21292;52.416;13.046;2022-12-11T13:06:27;33.33;;;15.48;;
35114;SDS011;21292;52.416;13.046;2022-12-11T13:08:57;34.70;;;14.57;;
35114;SDS011;21292;52.416;13.046;2022-12-11T13:11:29;36.78;;;15.43;;
35114;SDS011;21292;52.416;13.046;2022-12-11T13:14:04;32.13;;;15.13;;
35114;SDS011;21292;52.416;13.046;2022-12-11T13:16:35;34.63;;;14.75;;
35114;SDS011;21292;52.416;13.046;2022-12-11T13:19:14;35.22;;;15.63;;
35114;SDS011;21292;52.416;13.046;2022-12-11T13:21:53;35.28;;;14.98;;
35114;SDS011;21292;52.416;13.046;2022-12-11T13:24:26;32.92;;;14.45;;
35114;SDS011;21292;52.416;13.046;2022-12-11T13:26:55;34.65;;;14.20;;
35114;SDS011;21292;52.416;13.046;2022-12-11T13:29:34;35.83;;;15.95;;
35114;SDS011;21292;52.416;13.046;2022-12-11T13:32:04;34.65;;;15.45;;
35114;SDS011;21292;52.416;13.046;2022-12-11T13:34:50;35.75;;;16.38;;
35114;SDS011;21292;52.416;13.046;2022-12-11T13:37:20;28.88;;;14.07;;
35114;SDS011;21292;52.416;13.046;2022-12-11T13:42:21;37.30;;;16.85;;
35114;SDS011;21292;52.416;13.046;2022-12-11T13:47:20;36.15;;;15.52;;
35114;SDS011;21292;52.416;13.046;2022-12-11T13:49:52;36.10;;;16.48;;
35114;SDS011;21292;52.416;13.046;2022-12-11T13:52:22;34.63;;;15.63;;
35114;SDS011;21292;52.416;13.046;2022-12-11T13:54:51;37.17;;;16.15;;
35114;SDS011;21292;52.416;13.046;2022-12-11T13:57:21;37.08;;;17.23;;
35114;SDS011;21292;52.416;13.046;2022-12-11T13:59:53;34.25;;;14.82;;
35114;SDS011;21292;52.416;13.046;2022-12-11T14:02:22;33.42;;;15.57;;
35114;SDS011;21292;52.416;13.046;2022-12-11T14:04:52;35.53;;;15.75;;
35114;SDS011;21292;52.416;13.046;2022-12-11T14:07:23;30.48;;;15.10;;
35114;SDS011;21292;52.416;13.046;2022-12-11T14:09:54;33.60;;;15.70;;
35114;SDS011;21292;52.416;13.046;2022-12-11T14:12:26;34.83;;;16.00;;
35114;SDS011;21292;52.416;13.046;2022-12-11T14:14:57;37.80;;;16.25;;
35114;SDS011;21292;52.416;13.046;2022-12-11T14:19:56;38.35;;;16.77;;
35114;SDS011;21292;52.416;13.046;2022-12-11T14:22:26;41.63;;;16.58;;
35114;SDS011;21292;52.416;13.046;2022-12-11T14:24:57;35.55;;;16.58;;
35114;SDS011;21292;52.416;13.046;2022-12-11T14:27:28;35.30;;;16.40;;
35114;SDS011;21292;52.416;13.046;2022-12-11T14:30:07;34.47;;;16.55;;
35114;SDS011;21292;52.416;13.046;2022-12-11T14:32:38;42.20;;;17.60;;
35114;SDS011;21292;52.416;13.046;2022-12-11T14:35:11;43.13;;;16.50;;
35114;SDS011;21292;52.416;13.046;2022-12-11T14:37:51;38.08;;;15.20;;
35114;SDS011;21292;52.416;13.046;2022-12-11T14:40:21;35.15;;;17.50;;
35114;SDS011;21292;52.416;13.046;2022-12-11T14:42:52;37.33;;;16.63;;
35114;SDS011;21292;52.416;13.046;2022-12-11T14:45:29;39.85;;;16.83;;
35114;SDS011;21292;52.416;13.046;2022-12-11T14:48:00;37.17;;;16.83;;
35114;SDS011;21292;52.416;13.046;2022-12-11T14:50:29;38.20;;;17.30;;